CJK3 weather

Beauval Airport
Beauval, Saskatchewan, Canada

Public forecast

Using degrees Celsius for public forecast. Weather courtesy of forecast.io.

METAR (pilot weather report)

Report is more than 2 hours old.

Closest report is Buffalo Narrows Airport, 50.0 nm (92.6 km) NNW. Retrieved 2019/04/19 04:00 UTC (5 hours ago):

CYVT 190400Z 19007KT 15SM FEW060 FEW090 FEW120 SCT220 09/M02 A2966 RMK SC1AC1AC1CI2 SC TR LAST STFD OBS/NXT 191200 UTC SLP061

TAF (pilot weather forecast)

Forecast is more than 6 hours old.

Closest forecast is Buffalo Narrows Airport, 50.0 nm (92.6 km) NNW. Retrieved 2019/04/19 01:00 UTC (8 hours ago):

TAF CYVT 190038Z 1901/1904 24007KT P6SM FEW070 BKN250 RMK NXT FCST WILL BE ISSUED AT 191345Z